Powers, OR

6:20 PM PDT on September 20, 2014 (GMT -0700)
Sexton Summit | Change Station
CLOSE
Current Station
Airport
Location: Sexton Summit,
Elevation: 3839 ft
Nearby Weather Stations

Elev 3839 ft 42.60 °N, 123.36 °W | Updated 24 minutes ago

Partly Cloudy
Partly Cloudy
80 °F
Feels Like 80 °F
N
5
Wind Variable Wind from NW

Today
High -- | Low -- °F
--% Chance of Precip.
Yesterday
High -- | Low -- °F
Precip. -- in
7:01 AM 7:17 PM
Waning Crescent, 9% visible
Pressure 29.83 in
Visibility 10.0 miles
Clouds Clear
Dew Point 42 °F
Humidity 26%
Rainfall 0.00 in
Snow Depth 0 in , 0 in , 0 in
UV 1 out of 12
Pollen 4.10 out of 12
Air Quality Not available.
Flu Activity Not available.
METAR KSXT 210056Z AUTO 32004KT 10SM CLR 27/06 A3000 RMK AO2 SLP100 T02670056

More Conditions Fewer Conditions

Pressure 29.83 in
Visibility 10.0 miles
Clouds Clear
Dew Point 42 °F
Humidity 26%
Rainfall 0.00 in
Snow Depth 0 in , 0 in , 0 in
UV 1 out of 12
Pollen 4.10 out of 12
Air Quality Not available.
Flu Activity Not available.
METAR KSXT 210056Z AUTO 32004KT 10SM CLR 27/06 A3000 RMK AO2 SLP100 T02670056

More Conditions Fewer Conditions

10-Day Weather Forecast

Almanac

Astronomy

Sep. 20, 2014 Rise Set
Actual Time 7:01 AM PDT 7:17 PM PDT
Civil Twilight 6:33 AM PDT 7:45 PM PDT
Nautical Twilight 5:59 AM PDT 8:18 PM PDT
Astronomical Twilight 5:25 AM PDT 8:52 PM PDT
Moon 3:42 AM PDT (9/20) 5:26 PM PDT (9/20)
Length of Visible Light 13h 12m
Length of Day
12h 15m
Tomorrow will be 2m 53s shorter.
Waning Crescent, 9% of the Moon is Illuminated
Today
Waning Crescent
Sep 24
New
Oct 1
First Quarter
Oct 8
Full
Oct 15
Last Quarter

Today's Extremes

State Highs State Lows

Community

WunderPhotos

Upload Photos

1,755,025 photos uploaded!

WunderBlogs® & News

Nearby

Snow Depth

Station Depth Elevation
Irish Taylor 0 in 5500 ft
Bourne 0 in 5800 ft
Mt. Howard 0 in 7910 ft
Three Creeks Meadow 0 in 5650 ft
Diamond Lake 0 in 5315 ft

Earthquake Activity

City Distance Mag. Time & Date
Eureka, California 136 miles 3.1 1:33 PM PDT
2014-09-20
Minimum magnitude displayed is 2.5.

Coastal Water Temperatures

Place Temperature
Port Orford, OR 55.9 °F
Charleston, OR 57.0 °F
South Beach, OR 59.0 °F

Nearby Weather Stations